Time;durP1;ratioP1;P1;durP2;ratioP2;P2;SDS_P1;SDS_P2;PMS_P1;PMS_P2;Temp;Humidity;BMP_temperature;BMP_pressure;BME280_temperature;BME280_humidity;BME280_pressure;Samples;Min_cycle;Max_cycle;Signal;HPM_P1;HPM_P2
2023/12/03 00:00:40;;;;;;;14.43;8.50;;;;;;;1.04;100.00;99491.55;1371545;90;21983;-76
2023/12/03 00:03:11;;;;;;;26.70;16.63;;;;;;;1.01;100.00;99507.40;1526689;90;22966;-76
2023/12/03 00:05:38;;;;;;;26.60;13.65;;;;;;;1.01;100.00;99507.40;1507753;90;21718;-76
2023/12/03 00:08:05;;;;;;;18.67;10.87;;;;;;;1.04;100.00;99509.78;1384358;90;21412;-77
2023/12/03 00:10:31;;;;;;;33.30;18.80;;;;;;;1.06;100.00;99512.62;1444366;90;22803;-77
2023/12/03 00:12:58;;;;;;;15.77;10.00;;;;;;;1.11;100.00;99523.55;1441651;90;21844;-78
2023/12/03 00:15:24;;;;;;;20.93;12.67;;;;;;;1.12;100.00;99530.45;1463629;86;22087;-78
2023/12/03 00:17:53;;;;;;;31.33;18.67;;;;;;;1.12;100.00;99530.45;1489871;86;21856;-78
2023/12/03 00:20:19;;;;;;;24.97;15.17;;;;;;;1.15;100.00;99529.37;1473719;87;22110;-77
2023/12/03 00:22:46;;;;;;;23.17;16.23;;;;;;;1.16;100.00;99538.05;1472166;88;22159;-78
2023/12/03 00:25:12;;;;;;;17.53;10.70;;;;;;;1.22;100.00;99554.07;1485461;87;21978;-78
2023/12/03 00:27:40;;;;;;;17.23;9.57;;;;;;;1.22;100.00;99554.07;1477723;86;22021;-77
2023/12/03 00:30:10;;;;;;;17.77;10.67;;;;;;;1.21;100.00;99555.02;1476000;86;22161;-77
2023/12/03 00:32:36;;;;;;;15.27;9.40;;;;;;;1.27;100.00;99581.13;1478464;87;22131;-78
2023/12/03 00:35:02;;;;;;;18.43;10.47;;;;;;;1.24;100.00;99575.66;1492454;87;22720;-80
2023/12/03 00:37:28;;;;;;;17.03;10.47;;;;;;;1.24;100.00;99575.66;1479246;87;24267;-77
2023/12/03 00:39:54;;;;;;;21.90;13.63;;;;;;;1.27;100.00;99593.69;1486188;87;22093;-78
2023/12/03 00:42:20;;;;;;;19.83;11.40;;;;;;;1.29;100.00;99603.98;1476399;87;22149;-78
2023/12/03 00:44:47;;;;;;;16.10;9.70;;;;;;;1.32;100.00;99604.63;1485069;87;22851;-79
2023/12/03 00:47:13;;;;;;;17.03;10.93;;;;;;;1.36;100.00;99618.27;1509052;85;22239;-78
2023/12/03 00:49:39;;;;;;;15.80;10.07;;;;;;;1.36;100.00;99636.52;1483386;87;21976;-78
2023/12/03 00:52:05;;;;;;;17.73;9.37;;;;;;;1.28;100.00;99638.35;1472338;87;22071;-80
2023/12/03 00:54:32;;;;;;;17.83;10.27;;;;;;;1.28;100.00;99638.35;1480878;87;22010;-78
2023/12/03 00:56:58;;;;;;;19.27;11.67;;;;;;;1.28;100.00;99649.26;1474196;85;22149;-78
2023/12/03 00:59:25;;;;;;;19.43;12.47;;;;;;;1.27;100.00;99659.33;1488517;87;22556;-78
2023/12/03 01:01:51;;;;;;;19.33;10.97;;;;;;;1.22;100.00;99670.07;1485375;86;21986;-79
2023/12/03 01:04:18;;;;;;;21.70;11.70;;;;;;;1.20;100.00;99669.33;1480278;87;21941;-79
2023/12/03 01:06:44;;;;;;;18.43;11.07;;;;;;;1.18;100.00;99682.10;1486712;86;22947;-77
2023/12/03 01:09:11;;;;;;;20.13;12.23;;;;;;;1.17;100.00;99679.97;1457281;87;23070;-78
2023/12/03 01:11:42;;;;;;;22.10;11.97;;;;;;;1.12;100.00;99685.97;1483997;87;23198;-78
2023/12/03 01:14:08;;;;;;;20.60;11.23;;;;;;;1.18;100.00;99698.61;1474590;87;22153;-78
2023/12/03 01:16:34;;;;;;;18.67;11.23;;;;;;;1.16;100.00;99706.98;1482218;86;24036;-76
2023/12/03 01:19:01;;;;;;;26.73;13.67;;;;;;;1.16;100.00;99706.98;1484617;87;23297;-78
2023/12/03 01:21:27;;;;;;;17.23;11.17;;;;;;;1.15;100.00;99715.73;1474582;87;22111;-78
2023/12/03 01:23:53;;;;;;;20.43;12.57;;;;;;;1.07;100.00;99714.14;1478517;87;22180;-77
2023/12/03 01:26:19;;;;;;;23.90;15.10;;;;;;;1.07;100.00;99714.14;1477501;87;21837;-78
2023/12/03 01:28:46;;;;;;;25.00;17.23;;;;;;;1.12;100.00;99731.58;1501378;85;21915;-78
2023/12/03 01:31:12;;;;;;;19.60;12.13;;;;;;;1.13;100.00;99737.17;1475148;87;22104;-79
2023/12/03 01:33:38;;;;;;;22.10;14.43;;;;;;;1.09;100.00;99727.44;1470835;87;23004;-78
2023/12/03 01:36:06;;;;;;;19.00;11.97;;;;;;;1.08;100.00;99732.27;1486460;87;22047;-79
2023/12/03 01:38:32;;;;;;;21.10;12.40;;;;;;;1.09;100.00;99702.67;1507005;85;22005;-78
2023/12/03 01:40:58;;;;;;;24.93;13.40;;;;;;;1.09;100.00;99702.67;1526443;85;22119;-77
2023/12/03 01:43:24;;;;;;;23.47;13.60;;;;;;;1.13;100.00;99704.12;1537154;84;22219;-79
2023/12/03 01:45:51;;;;;;;25.10;13.70;;;;;;;1.08;100.00;99724.92;1509256;85;22075;-77
2023/12/03 01:48:17;;;;;;;22.97;14.00;;;;;;;1.08;100.00;99724.92;1531924;84;22128;-76
2023/12/03 01:50:45;;;;;;;22.80;12.93;;;;;;;1.08;100.00;99741.86;1525028;84;21828;-78
2023/12/03 01:53:11;;;;;;;23.40;15.00;;;;;;;1.06;100.00;99743.73;1524685;85;22201;-77
2023/12/03 01:55:37;;;;;;;24.17;13.77;;;;;;;1.07;100.00;99744.11;1519307;85;22853;-77
2023/12/03 01:58:04;;;;;;;23.33;13.90;;;;;;;1.07;100.00;99744.11;1506184;85;22296;-78
2023/12/03 02:00:32;;;;;;;22.00;12.23;;;;;;;1.08;100.00;99746.59;1526950;84;21908;-77
2023/12/03 02:02:58;;;;;;;30.63;14.20;;;;;;;1.08;100.00;99746.59;1528466;84;23162;-78
2023/12/03 02:05:24;;;;;;;23.70;15.03;;;;;;;1.11;100.00;99779.44;1523357;85;22030;-77
2023/12/03 02:07:50;;;;;;;24.03;13.70;;;;;;;1.16;100.00;99790.88;1527523;85;22135;-78
2023/12/03 02:10:17;;;;;;;26.87;14.27;;;;;;;1.16;100.00;99790.88;1529177;85;22989;-78
2023/12/03 02:12:43;;;;;;;24.97;13.57;;;;;;;1.09;100.00;99803.45;1531328;84;22175;-78
2023/12/03 02:15:10;;;;;;;26.77;15.40;;;;;;;1.09;100.00;99823.00;1522376;85;22040;-78
2023/12/03 02:17:36;;;;;;;23.57;13.80;;;;;;;1.12;100.00;99828.88;1528485;85;23047;-78
2023/12/03 02:20:04;;;;;;;22.90;13.27;;;;;;;1.05;100.00;99841.09;1523024;85;22340;-77
2023/12/03 02:22:30;;;;;;;26.00;15.70;;;;;;;1.05;100.00;99841.09;1527103;84;21850;-77
2023/12/03 02:24:56;;;;;;;24.53;14.40;;;;;;;1.10;100.00;99858.58;1525820;84;22246;-77
2023/12/03 02:27:22;;;;;;;28.70;16.80;;;;;;;1.09;100.00;99845.16;1532516;84;22768;-78
2023/12/03 02:29:48;;;;;;;36.53;19.37;;;;;;;1.09;100.00;99858.19;1540674;85;21984;-78
2023/12/03 02:32:15;;;;;;;44.53;23.23;;;;;;;1.09;100.00;99858.19;1529146;84;22148;-77
2023/12/03 02:34:41;;;;;;;27.17;15.47;;;;;;;1.07;100.00;99871.81;1523849;85;22080;-77
2023/12/03 02:37:07;;;;;;;29.87;16.17;;;;;;;1.07;100.00;99871.81;1534474;85;21911;-78
2023/12/03 02:39:33;;;;;;;32.63;16.93;;;;;;;1.06;100.00;99876.16;1537062;85;21827;-78
2023/12/03 02:41:59;;;;;;;28.33;15.13;;;;;;;1.05;100.00;99880.19;1527168;85;22401;-77
2023/12/03 02:44:25;;;;;;;31.83;16.13;;;;;;;1.08;100.00;99894.32;1544494;85;22144;-78
2023/12/03 02:46:51;;;;;;;28.73;16.10;;;;;;;1.08;100.00;99894.32;1528809;84;21971;-79
2023/12/03 02:49:17;;;;;;;27.70;16.53;;;;;;;1.09;100.00;99896.84;1533048;85;21855;-78
2023/12/03 02:51:44;;;;;;;30.63;16.73;;;;;;;1.06;100.00;99893.58;1534362;85;22037;-77
2023/12/03 02:54:10;;;;;;;28.07;17.13;;;;;;;1.04;100.00;99899.38;1535324;85;21886;-77
2023/12/03 02:56:36;;;;;;;34.80;18.80;;;;;;;1.01;100.00;99907.40;1512103;85;23104;-78
2023/12/03 02:59:02;;;;;;;54.07;28.63;;;;;;;0.99;100.00;99911.39;1529512;84;21723;-78
2023/12/03 03:01:28;;;;;;;41.47;23.37;;;;;;;0.94;100.00;99932.16;1538353;84;21299;-79
2023/12/03 03:03:54;;;;;;;37.30;19.87;;;;;;;0.99;100.00;99947.05;1532587;85;21902;-77
2023/12/03 03:06:21;;;;;;;32.77;18.67;;;;;;;0.99;100.00;99947.05;1536971;85;22815;-78
2023/12/03 03:08:47;;;;;;;32.57;18.87;;;;;;;0.95;100.00;99949.46;1525720;84;22012;-79
2023/12/03 03:11:13;;;;;;;34.20;19.27;;;;;;;0.91;100.00;99943.61;1528095;84;22509;-77
2023/12/03 03:13:39;;;;;;;29.70;17.47;;;;;;;0.91;100.00;99943.61;1530342;85;21933;-77
2023/12/03 03:16:06;;;;;;;30.47;17.67;;;;;;;0.88;100.00;99945.95;1531110;84;21804;-79
2023/12/03 03:18:35;;;;;;;28.33;16.70;;;;;;;0.88;100.00;99945.95;1528558;85;21802;-79
2023/12/03 03:21:02;;;;;;;39.07;21.60;;;;;;;0.89;100.00;99939.82;1533161;85;22011;-76
2023/12/03 03:23:29;;;;;;;30.47;17.00;;;;;;;0.87;100.00;99944.28;1528205;85;21800;-77
2023/12/03 03:25:55;;;;;;;28.00;14.67;;;;;;;0.86;100.00;99945.23;1533728;85;21892;-78
2023/12/03 03:28:22;;;;;;;33.27;19.50;;;;;;;0.76;100.00;99953.25;1501147;85;22967;-79
2023/12/03 03:30:48;;;;;;;29.53;16.33;;;;;;;0.74;100.00;99968.59;1537181;85;21871;-78
2023/12/03 03:33:14;;;;;;;30.60;16.33;;;;;;;0.74;100.00;99968.59;1510454;85;22377;-78
2023/12/03 03:35:41;;;;;;;28.07;15.27;;;;;;;0.74;100.00;99970.73;1526092;85;21703;-77
2023/12/03 03:38:07;;;;;;;25.87;15.47;;;;;;;0.78;100.00;99983.95;1528944;84;22560;-79
2023/12/03 03:40:33;;;;;;;27.30;16.57;;;;;;;0.79;100.00;99986.09;1507064;85;21719;-80
2023/12/03 03:42:59;;;;;;;27.77;16.90;;;;;;;0.80;100.00;99995.09;1529376;85;21721;-77
2023/12/03 03:45:25;;;;;;;29.03;16.33;;;;;;;0.78;100.00;99991.77;1534876;85;22106;-79
2023/12/03 03:47:52;;;;;;;31.67;17.80;;;;;;;0.76;100.00;99998.83;1521766;84;22159;-77
2023/12/03 03:50:19;;;;;;;30.40;18.23;;;;;;;0.75;100.00;100006.29;1526861;85;21841;-77
2023/12/03 03:52:45;;;;;;;29.93;14.50;;;;;;;0.71;100.00;100003.48;1526034;85;21838;-77
2023/12/03 03:55:11;;;;;;;26.43;14.20;;;;;;;0.66;100.00;100006.83;1508167;85;21691;-79
2023/12/03 03:57:37;;;;;;;26.10;15.47;;;;;;;0.58;100.00;100014.31;1530236;85;21728;-79
2023/12/03 04:00:05;;;;;;;28.87;14.50;;;;;;;0.42;100.00;100015.22;1529389;84;21697;-79
2023/12/03 04:02:32;;;;;;;27.60;16.07;;;;;;;0.42;100.00;100015.22;1499050;85;21721;-78
2023/12/03 04:04:58;;;;;;;26.03;14.90;;;;;;;0.40;100.00;100021.01;1523620;85;22719;-79
2023/12/03 04:07:25;;;;;;;25.70;15.07;;;;;;;0.39;100.00;100036.70;1531012;85;21725;-78
2023/12/03 04:09:51;;;;;;;28.20;15.03;;;;;;;0.41;100.00;100050.01;1523921;85;21899;-78
2023/12/03 04:12:17;;;;;;;23.80;13.43;;;;;;;0.37;100.00;100048.50;1518075;85;21650;-78
2023/12/03 04:14:43;;;;;;;28.03;15.00;;;;;;;0.38;100.00;100048.06;1518706;84;21496;-78
2023/12/03 04:17:09;;;;;;;28.03;14.57;;;;;;;0.40;100.00;100055.30;1529868;84;22865;-78
2023/12/03 04:19:36;;;;;;;26.33;15.67;;;;;;;0.40;100.00;100049.64;1532656;85;22647;-78
2023/12/03 04:22:03;;;;;;;29.37;17.17;;;;;;;0.44;100.00;100056.33;1525421;85;21851;-78
2023/12/03 04:24:29;;;;;;;28.27;14.30;;;;;;;0.46;100.00;100060.13;1529748;85;21992;-78
2023/12/03 04:26:55;;;;;;;27.17;14.17;;;;;;;0.46;100.00;100070.55;1532610;85;22361;-77
2023/12/03 04:29:21;;;;;;;26.43;16.23;;;;;;;0.48;100.00;100062.66;1536065;84;21801;-78
2023/12/03 04:31:49;;;;;;;29.37;17.70;;;;;;;0.49;100.00;100070.39;1531328;85;23640;-77
2023/12/03 04:34:15;;;;;;;28.27;15.70;;;;;;;0.52;100.00;100082.36;1534764;85;21772;-78
2023/12/03 04:36:44;;;;;;;31.00;17.40;;;;;;;0.54;100.00;100083.95;1530586;85;21919;-79
2023/12/03 04:39:10;;;;;;;27.57;15.97;;;;;;;0.56;100.00;100087.30;1523162;85;22147;-79
2023/12/03 04:41:37;;;;;;;27.27;15.40;;;;;;;0.57;100.00;100092.04;1525937;84;21786;-78
2023/12/03 04:44:04;;;;;;;34.87;21.63;;;;;;;0.57;100.00;100092.04;1532454;84;21728;-79
2023/12/03 04:46:31;;;;;;;28.30;15.27;;;;;;;0.54;100.00;100086.55;1529187;85;21809;-79
2023/12/03 04:48:57;;;;;;;29.40;15.60;;;;;;;0.57;100.00;100097.25;1528820;85;22716;-78
2023/12/03 04:51:23;;;;;;;25.13;15.30;;;;;;;0.55;100.00;100110.85;1533382;85;21827;-77
2023/12/03 04:53:49;;;;;;;23.67;13.43;;;;;;;0.54;100.00;100116.50;1503585;85;22312;-78
2023/12/03 04:56:15;;;;;;;28.87;17.50;;;;;;;0.54;100.00;100127.38;1531033;84;21750;-78
2023/12/03 04:58:41;;;;;;;36.10;18.07;;;;;;;0.55;100.00;100129.91;1524848;85;22205;-78
2023/12/03 05:01:08;;;;;;;27.27;15.20;;;;;;;0.55;100.00;100149.91;1525447;84;22259;-77
2023/12/03 05:03:34;;;;;;;26.33;14.33;;;;;;;0.55;100.00;100156.42;1530372;85;21676;-76
2023/12/03 05:06:00;;;;;;;27.67;14.87;;;;;;;0.51;100.00;100158.34;1533709;84;22797;-77
2023/12/03 05:08:26;;;;;;;24.30;13.90;;;;;;;0.49;100.00;100171.08;1511474;85;21719;-78
2023/12/03 05:10:52;;;;;;;28.53;14.47;;;;;;;0.49;100.00;100179.75;1533954;84;21656;-78
2023/12/03 05:13:19;;;;;;;32.30;18.47;;;;;;;0.50;100.00;100192.30;1527580;85;21743;-79
2023/12/03 05:15:45;;;;;;;28.03;17.17;;;;;;;0.48;100.00;100191.55;1528774;85;22648;-78
2023/12/03 05:18:11;;;;;;;25.27;14.90;;;;;;;0.49;100.00;100194.08;1503429;85;22733;-77
2023/12/03 05:20:37;;;;;;;28.30;16.33;;;;;;;0.46;100.00;100194.22;1534575;84;21620;-78
2023/12/03 05:23:04;;;;;;;29.70;16.53;;;;;;;0.46;100.00;100194.22;1532043;84;21637;-78
2023/12/03 05:25:30;;;;;;;24.57;13.93;;;;;;;0.48;100.00;100208.47;1530251;85;21538;-78
2023/12/03 05:27:56;;;;;;;30.43;17.00;;;;;;;0.48;100.00;100213.68;1527525;85;21951;-76
2023/12/03 05:30:22;;;;;;;30.47;17.43;;;;;;;0.48;100.00;100214.98;1530150;84;22200;-78
2023/12/03 05:32:49;;;;;;;29.40;17.67;;;;;;;0.48;100.00;100229.30;1536489;85;21766;-76
2023/12/03 05:35:15;;;;;;;27.37;17.63;;;;;;;0.47;100.00;100228.94;1509378;85;22762;-78
2023/12/03 05:37:41;;;;;;;29.33;16.87;;;;;;;0.45;100.00;100227.24;1524087;85;21820;-78
2023/12/03 05:40:08;;;;;;;29.77;16.67;;;;;;;0.45;100.00;100235.05;1526369;84;21723;-78
2023/12/03 05:42:35;;;;;;;28.27;16.00;;;;;;;0.45;100.00;100237.66;1527813;84;22468;-78
2023/12/03 05:45:01;;;;;;;29.43;16.20;;;;;;;0.47;100.00;100238.05;1535840;84;21767;-77
2023/12/03 05:47:27;;;;;;;25.87;16.03;;;;;;;0.47;100.00;100238.05;1530589;85;21704;-78
2023/12/03 05:49:53;;;;;;;27.63;16.30;;;;;;;0.44;100.00;100242.50;1527725;85;22869;-78
2023/12/03 05:52:19;;;;;;;29.20;16.77;;;;;;;0.40;100.00;100244.91;1530609;85;21692;-78
2023/12/03 05:54:46;;;;;;;33.27;17.93;;;;;;;0.42;100.00;100246.95;1526383;84;21813;-78
2023/12/03 05:57:12;;;;;;;32.47;18.30;;;;;;;0.40;100.00;100247.52;1534265;84;21726;-78
2023/12/03 05:59:39;;;;;;;29.23;15.93;;;;;;;0.34;100.00;100252.21;1527903;84;21992;-78
2023/12/03 06:02:05;;;;;;;29.00;16.37;;;;;;;0.34;100.00;100252.21;1529941;85;21622;-78
2023/12/03 06:04:31;;;;;;;30.83;16.70;;;;;;;0.33;100.00;100248.78;1527127;85;22787;-77
2023/12/03 06:06:57;;;;;;;27.80;16.03;;;;;;;0.34;100.00;100254.34;1527510;84;21635;-77
2023/12/03 06:09:24;;;;;;;23.10;13.77;;;;;;;0.34;100.00;100259.55;1528858;85;22319;-79
2023/12/03 06:11:50;;;;;;;26.83;14.87;;;;;;;0.36;100.00;100260.31;1528464;85;21601;-79
2023/12/03 06:14:17;;;;;;;26.43;16.50;;;;;;;0.36;100.00;100264.22;1526719;85;21611;-79
2023/12/03 06:16:43;;;;;;;29.33;16.50;;;;;;;0.39;100.00;100270.55;1529844;84;23190;-78
2023/12/03 06:19:09;;;;;;;28.60;15.77;;;;;;;0.37;100.00;100275.00;1534860;85;22687;-79
2023/12/03 06:21:35;;;;;;;32.30;18.17;;;;;;;0.37;100.00;100281.52;1536021;85;21752;-79
2023/12/03 06:24:02;;;;;;;44.43;24.57;;;;;;;0.38;100.00;100287.11;1513620;85;21722;-77
2023/12/03 06:26:28;;;;;;;38.30;19.30;;;;;;;0.41;100.00;100294.75;1526334;85;21645;-78
2023/12/03 06:28:54;;;;;;;24.10;13.73;;;;;;;0.44;100.00;100297.18;1535087;84;22699;-78
2023/12/03 06:31:21;;;;;;;30.43;17.23;;;;;;;0.47;100.00;100305.75;1529169;85;21677;-78
2023/12/03 06:33:47;;;;;;;28.30;17.83;;;;;;;0.47;100.00;100310.50;1525690;85;21674;-77
2023/12/03 06:36:14;;;;;;;30.40;16.97;;;;;;;0.49;100.00;100309.09;1533209;84;21699;-78
2023/12/03 06:38:40;;;;;;;30.73;16.77;;;;;;;0.48;100.00;100316.53;1530007;84;22748;-77
2023/12/03 06:41:06;;;;;;;31.80;18.93;;;;;;;0.48;100.00;100323.05;1532086;85;21661;-76
2023/12/03 06:43:33;;;;;;;33.00;19.03;;;;;;;0.48;100.00;100328.25;1528741;85;21587;-77
2023/12/03 06:45:59;;;;;;;32.57;20.17;;;;;;;0.51;100.00;100335.89;1532825;85;21943;-76
2023/12/03 06:48:25;;;;;;;33.07;19.57;;;;;;;0.53;100.00;100340.09;1526925;85;21677;-76
2023/12/03 06:50:53;;;;;;;33.30;19.77;;;;;;;0.56;100.00;100339.09;1525589;85;22784;-76
2023/12/03 06:53:19;;;;;;;34.77;19.80;;;;;;;0.59;100.00;100353.23;1534449;85;22222;-76
2023/12/03 06:55:45;;;;;;;31.13;17.47;;;;;;;0.59;100.00;100355.84;1535717;85;21932;-77
2023/12/03 06:58:12;;;;;;;35.67;18.93;;;;;;;0.56;100.00;100355.55;1533174;85;22606;-78
2023/12/03 07:00:39;;;;;;;37.60;20.83;;;;;;;0.61;100.00;100367.86;1527670;85;22818;-77
2023/12/03 07:03:05;;;;;;;53.77;30.83;;;;;;;0.63;100.00;100366.45;1523418;84;21728;-77
2023/12/03 07:05:31;;;;;;;46.67;26.33;;;;;;;0.65;100.00;100377.64;1534865;84;21947;-78
2023/12/03 07:07:57;;;;;;;43.97;25.00;;;;;;;0.70;100.00;100380.83;1511363;85;21797;-76
2023/12/03 07:10:24;;;;;;;50.80;26.60;;;;;;;0.79;100.00;100394.64;1531950;85;21771;-76
2023/12/03 07:12:50;;;;;;;60.43;30.77;;;;;;;0.79;100.00;100394.64;1526142;85;21886;-77
2023/12/03 07:15:17;;;;;;;64.37;33.43;;;;;;;0.85;100.00;100397.36;1513847;85;21860;-76
2023/12/03 07:17:43;;;;;;;62.10;31.63;;;;;;;0.85;100.00;100397.36;1512180;85;21972;-76
2023/12/03 07:20:10;;;;;;;53.60;30.30;;;;;;;0.90;100.00;100410.98;1534095;85;21655;-76
2023/12/03 07:22:37;;;;;;;54.37;29.90;;;;;;;0.89;100.00;100420.57;1523290;84;21659;-76
2023/12/03 07:25:04;;;;;;;48.47;28.80;;;;;;;0.86;100.00;100412.06;1526313;85;21679;-77
2023/12/03 07:27:30;;;;;;;51.83;28.13;;;;;;;0.82;100.00;100415.31;1521899;85;22201;-78
2023/12/03 07:29:57;;;;;;;52.13;26.67;;;;;;;0.82;100.00;100415.31;1526953;85;21869;-77
2023/12/03 07:32:24;;;;;;;43.53;23.80;;;;;;;0.82;100.00;100421.83;1514834;85;21919;-78
2023/12/03 07:34:50;;;;;;;37.47;21.97;;;;;;;0.78;100.00;100415.12;1526276;85;21852;-77
2023/12/03 07:37:17;;;;;;;35.77;18.70;;;;;;;0.78;100.00;100415.12;1531177;85;22245;-77
2023/12/03 07:39:43;;;;;;;35.17;19.27;;;;;;;0.82;100.00;100424.43;1532695;85;21661;-77
2023/12/03 07:42:09;;;;;;;40.17;21.83;;;;;;;0.88;100.00;100433.20;1531593;85;21830;-77
2023/12/03 07:44:35;;;;;;;43.20;23.17;;;;;;;0.88;100.00;100433.20;1531615;85;21893;-78
2023/12/03 07:47:02;;;;;;;40.73;21.93;;;;;;;0.93;100.00;100442.08;1527701;84;22709;-77
2023/12/03 07:49:29;;;;;;;56.67;27.33;;;;;;;0.96;100.00;100446.28;1533700;85;21944;-76
2023/12/03 07:51:55;;;;;;;67.17;32.67;;;;;;;0.96;100.00;100446.28;1526153;85;22245;-78
2023/12/03 07:54:21;;;;;;;47.73;25.10;;;;;;;0.92;100.00;100446.06;1532733;85;22013;-78
2023/12/03 07:56:48;;;;;;;41.77;23.80;;;;;;;0.89;100.00;100445.77;1528154;85;21669;-77
2023/12/03 07:59:14;;;;;;;38.37;22.00;;;;;;;0.89;100.00;100445.77;1525789;85;23338;-76
2023/12/03 08:01:40;;;;;;;44.47;23.53;;;;;;;0.93;100.00;100457.72;1535885;85;23067;-76
2023/12/03 08:04:06;;;;;;;46.37;24.20;;;;;;;0.97;100.00;100458.38;1506209;85;21915;-76
2023/12/03 08:06:33;;;;;;;41.43;22.00;;;;;;;0.97;100.00;100458.38;1532069;84;21740;-76
2023/12/03 08:09:00;;;;;;;40.33;20.97;;;;;;;0.98;100.00;100458.75;1530449;85;21715;-76
2023/12/03 08:11:26;;;;;;;44.37;22.70;;;;;;;1.01;100.00;100459.44;1529799;84;22560;-77
2023/12/03 08:13:54;;;;;;;40.33;21.87;;;;;;;1.05;100.00;100462.70;1530233;85;21923;-76
2023/12/03 08:16:20;;;;;;;40.80;21.67;;;;;;;1.17;100.00;100470.30;1530900;84;21801;-77
2023/12/03 08:18:47;;;;;;;45.80;22.50;;;;;;;1.22;100.00;100478.23;1521497;85;21744;-76
2023/12/03 08:21:14;;;;;;;40.00;21.70;;;;;;;1.22;100.00;100478.23;1525455;84;22910;-77
2023/12/03 08:23:41;;;;;;;41.27;21.90;;;;;;;1.27;100.00;100481.43;1524926;85;21852;-76
2023/12/03 08:26:08;;;;;;;37.47;21.40;;;;;;;1.32;100.00;100476.80;1535564;84;21792;-76
2023/12/03 08:28:34;;;;;;;46.40;24.07;;;;;;;1.40;100.00;100477.65;1532374;85;22071;-77
2023/12/03 08:31:00;;;;;;;53.27;28.17;;;;;;;1.44;100.00;100486.99;1528545;85;22212;-76
2023/12/03 08:33:27;;;;;;;58.40;28.13;;;;;;;1.47;100.00;100488.13;1524384;85;22078;-77
2023/12/03 08:35:53;;;;;;;42.07;23.40;;;;;;;1.50;100.00;100489.25;1533968;85;22869;-76
2023/12/03 08:38:19;;;;;;;42.13;22.37;;;;;;;1.55;100.00;100498.96;1534644;85;22105;-77
2023/12/03 08:40:45;;;;;;;39.00;21.90;;;;;;;1.56;100.00;100503.23;1524172;84;22061;-76
2023/12/03 08:43:11;;;;;;;36.50;20.53;;;;;;;1.58;100.00;100504.44;1531519;84;22209;-76
2023/12/03 08:45:40;;;;;;;38.60;20.67;;;;;;;1.62;100.00;100505.13;1531762;85;21942;-77
2023/12/03 08:48:07;;;;;;;38.40;19.73;;;;;;;1.65;100.00;100511.47;1523346;85;22060;-77
2023/12/03 08:50:33;;;;;;;32.57;18.13;;;;;;;1.69;100.00;100520.31;1528161;84;22149;-76
2023/12/03 08:52:59;;;;;;;36.73;19.40;;;;;;;1.72;100.00;100521.91;1543731;85;22302;-76
2023/12/03 08:55:26;;;;;;;31.13;17.10;;;;;;;1.77;100.00;100529.84;1531464;85;22066;-76
2023/12/03 08:57:52;;;;;;;28.23;15.60;;;;;;;1.83;100.00;100529.96;1528462;84;22210;-76
2023/12/03 09:00:18;;;;;;;33.57;17.20;;;;;;;1.89;100.00;100532.68;1527127;85;22658;-76
2023/12/03 09:02:47;;;;;;;33.00;18.00;;;;;;;1.94;100.00;100531.95;1538512;85;22111;-76
2023/12/03 09:05:14;;;;;;;32.67;18.17;;;;;;;1.93;100.00;100535.50;1530672;85;22168;-80
2023/12/03 09:07:40;;;;;;;38.80;20.20;;;;;;;1.96;100.00;100543.16;1525295;84;22108;-77
2023/12/03 09:10:08;;;;;;;41.50;23.10;;;;;;;1.98;100.00;100542.11;1533530;85;22238;-76
2023/12/03 09:12:35;;;;;;;27.50;17.03;;;;;;;2.00;100.00;100549.86;1539628;85;22230;-77
2023/12/03 09:15:01;;;;;;;43.07;22.10;;;;;;;1.99;100.00;100545.11;1533086;85;22283;-76
2023/12/03 09:17:27;;;;;;;60.93;31.67;;;;;;;1.95;100.00;100551.89;1536371;84;21992;-76
2023/12/03 09:19:54;;;;;;;40.33;20.93;;;;;;;1.92;100.00;100554.22;1526989;85;22260;-77
2023/12/03 09:22:20;;;;;;;29.30;17.03;;;;;;;1.87;100.00;100555.41;1526319;85;22119;-76
2023/12/03 09:24:47;;;;;;;30.27;16.40;;;;;;;1.84;100.00;100553.81;1532187;84;22935;-76
2023/12/03 09:27:13;;;;;;;36.87;17.43;;;;;;;1.82;100.00;100554.86;1526530;85;22092;-77
2023/12/03 09:29:39;;;;;;;40.00;21.87;;;;;;;1.74;100.00;100562.65;1530175;84;22142;-76
2023/12/03 09:32:06;;;;;;;29.23;16.67;;;;;;;1.71;100.00;100568.05;1527446;85;22112;-77
2023/12/03 09:34:32;;;;;;;30.13;16.37;;;;;;;1.65;100.00;100563.18;1526405;85;22316;-77
2023/12/03 09:36:58;;;;;;;29.63;16.47;;;;;;;1.62;100.00;100557.30;1513456;85;22271;-75
2023/12/03 09:39:24;;;;;;;26.53;14.47;;;;;;;1.58;100.00;100564.00;1534885;85;22148;-76
2023/12/03 09:41:53;;;;;;;34.93;17.77;;;;;;;1.53;100.00;100566.49;1524087;85;22139;-77
2023/12/03 09:44:27;;;;;;;30.07;16.67;;;;;;;1.51;100.00;100560.51;1538987;85;22180;-77
2023/12/03 09:46:54;;;;;;;34.27;20.53;;;;;;;1.48;100.00;100564.59;1541179;85;22070;-76
2023/12/03 09:49:25;;;;;;;31.17;18.73;;;;;;;1.49;100.00;100561.05;1535654;85;22213;-77
2023/12/03 09:51:54;;;;;;;39.77;20.87;;;;;;;1.52;100.00;100562.19;1541482;85;23106;-76
2023/12/03 09:54:23;;;;;;;39.27;22.20;;;;;;;1.56;100.00;100568.45;1536261;85;22984;-77
2023/12/03 09:56:51;;;;;;;37.50;20.70;;;;;;;1.58;100.00;100568.35;1541963;84;22053;-77
2023/12/03 09:59:18;;;;;;;34.37;18.60;;;;;;;1.56;100.00;100568.92;1525433;85;22131;-77
2023/12/03 10:01:45;;;;;;;39.20;20.83;;;;;;;1.58;100.00;100573.57;1530079;84;22049;-77
2023/12/03 10:04:11;;;;;;;37.00;21.03;;;;;;;1.55;100.00;100568.53;1510818;85;22225;-77
2023/12/03 10:06:45;;;;;;;44.70;22.63;;;;;;;1.50;100.00;100564.05;1527191;85;22111;-77
2023/12/03 10:09:14;;;;;;;42.87;23.40;;;;;;;1.49;100.00;100568.41;1534633;84;22053;-75
2023/12/03 10:11:43;;;;;;;38.60;21.13;;;;;;;1.49;100.00;100569.71;1517705;85;22091;-77
2023/12/03 10:14:12;;;;;;;40.03;22.50;;;;;;;1.49;100.00;100569.71;1530119;85;21951;-75
2023/12/03 10:16:39;;;;;;;29.30;17.67;;;;;;;1.52;100.00;100576.53;1529568;85;21988;-77
2023/12/03 10:19:05;;;;;;;32.57;19.27;;;;;;;1.50;100.00;100575.80;1533909;85;22239;-76
2023/12/03 10:21:32;;;;;;;35.90;20.43;;;;;;;1.48;100.00;100576.34;1514661;85;22034;-76
2023/12/03 10:24:04;;;;;;;37.43;22.30;;;;;;;1.48;100.00;100576.34;1521729;84;22591;-77
2023/12/03 10:26:32;;;;;;;48.03;25.83;;;;;;;1.49;100.00;100569.71;1532958;85;22274;-77
2023/12/03 10:29:00;;;;;;;56.77;31.13;;;;;;;1.43;100.00;100565.31;1530037;85;22042;-77
2023/12/03 10:31:30;;;;;;;45.83;25.53;;;;;;;1.39;100.00;100571.64;1529733;85;22220;-76
2023/12/03 10:33:54;;;;;;;107.90;47.47;;;;;;;1.37;100.00;100577.39;1537538;85;23023;-77
2023/12/03 10:36:20;;;;;;;64.40;31.13;;;;;;;1.35;100.00;100579.63;1530041;85;23145;-77
2023/12/03 10:38:46;;;;;;;55.27;30.13;;;;;;;1.32;100.00;100584.16;1463455;87;23161;-77
2023/12/03 10:41:14;;;;;;;30.57;19.30;;;;;;;1.24;100.00;100588.98;1536026;85;22253;-76
2023/12/03 10:43:43;;;;;;;29.13;17.33;;;;;;;1.24;100.00;100588.98;1528375;85;21968;-76
2023/12/03 10:46:12;;;;;;;37.07;20.93;;;;;;;1.17;100.00;100593.66;1520493;85;23101;-76
2023/12/03 10:48:39;;;;;;;45.73;25.37;;;;;;;0.87;100.00;100590.48;1530731;85;22089;-77
2023/12/03 10:51:09;;;;;;;47.20;25.70;;;;;;;0.87;100.00;100590.48;1530000;85;22733;-77
2023/12/03 10:53:37;;;;;;;38.97;21.27;;;;;;;0.83;100.00;100594.16;1519342;84;22330;-76
2023/12/03 10:56:05;;;;;;;35.07;22.03;;;;;;;0.70;100.00;100603.56;1532650;85;22024;-76
2023/12/03 10:58:36;;;;;;;28.80;18.60;;;;;;;0.70;100.00;100603.56;1518359;85;22384;-76
2023/12/03 11:01:18;;;;;;;33.90;18.53;;;;;;;0.67;100.00;100595.91;1534458;85;22055;-75
2023/12/03 11:03:57;;;;;;;32.28;18.35;;;;;;;0.68;100.00;100601.49;1531491;85;21857;-75
2023/12/03 11:06:24;;;;;;;29.90;17.77;;;;;;;0.71;100.00;100604.41;1529274;84;21321;-77
2023/12/03 11:08:52;;;;;;;31.97;19.67;;;;;;;0.74;100.00;100611.59;1537719;85;21740;-77